sensor_id;sensor_type;location;lat;lon;timestamp;temperature;humidity
212;DHT22;16228;48.800;9.002;2023-03-20T00:00:28;8.80;96.90
212;DHT22;16228;48.800;9.002;2023-03-20T00:02:55;8.80;96.90
212;DHT22;16228;48.800;9.002;2023-03-20T00:05:24;8.80;96.90
212;DHT22;16228;48.800;9.002;2023-03-20T00:07:53;8.80;96.90
212;DHT22;16228;48.800;9.002;2023-03-20T00:10:21;8.80;96.90
212;DHT22;16228;48.800;9.002;2023-03-20T00:12:49;8.80;96.90
212;DHT22;16228;48.800;9.002;2023-03-20T00:15:28;8.80;96.90
212;DHT22;16228;48.800;9.002;2023-03-20T00:17:57;8.80;96.90
212;DHT22;16228;48.800;9.002;2023-03-20T00:20:26;8.80;96.90
212;DHT22;16228;48.800;9.002;2023-03-20T00:22:53;8.80;96.90
212;DHT22;16228;48.800;9.002;2023-03-20T00:25:22;8.80;96.90
212;DHT22;16228;48.800;9.002;2023-03-20T00:27:50;8.70;96.90
212;DHT22;16228;48.800;9.002;2023-03-20T00:30:24;8.80;96.90
212;DHT22;16228;48.800;9.002;2023-03-20T00:32:53;8.70;96.90
212;DHT22;16228;48.800;9.002;2023-03-20T00:35:27;8.70;96.90
212;DHT22;16228;48.800;9.002;2023-03-20T00:37:55;8.80;96.90
212;DHT22;16228;48.800;9.002;2023-03-20T00:40:28;8.80;96.90
212;DHT22;16228;48.800;9.002;2023-03-20T00:42:59;8.80;96.90
212;DHT22;16228;48.800;9.002;2023-03-20T00:45:27;8.80;96.90
212;DHT22;16228;48.800;9.002;2023-03-20T00:47:56;8.80;96.90
212;DHT22;16228;48.800;9.002;2023-03-20T00:50:26;8.80;96.90
212;DHT22;16228;48.800;9.002;2023-03-20T00:52:55;8.80;96.90
212;DHT22;16228;48.800;9.002;2023-03-20T00:55:25;8.80;96.90
212;DHT22;16228;48.800;9.002;2023-03-20T00:57:54;8.80;96.90
212;DHT22;16228;48.800;9.002;2023-03-20T01:00:25;8.80;96.90
212;DHT22;16228;48.800;9.002;2023-03-20T01:02:56;8.80;96.90
212;DHT22;16228;48.800;9.002;2023-03-20T01:05:25;8.80;96.90
212;DHT22;16228;48.800;9.002;2023-03-20T01:07:54;8.80;96.90
212;DHT22;16228;48.800;9.002;2023-03-20T01:10:23;8.80;96.90
212;DHT22;16228;48.800;9.002;2023-03-20T01:12:53;8.80;96.90
212;DHT22;16228;48.800;9.002;2023-03-20T01:15:28;8.80;96.90
212;DHT22;16228;48.800;9.002;2023-03-20T01:17:56;8.80;96.90
212;DHT22;16228;48.800;9.002;2023-03-20T01:20:26;8.70;96.90
212;DHT22;16228;48.800;9.002;2023-03-20T01:22:54;8.80;96.90
212;DHT22;16228;48.800;9.002;2023-03-20T01:25:21;8.70;96.90
212;DHT22;16228;48.800;9.002;2023-03-20T01:27:50;8.80;96.90
212;DHT22;16228;48.800;9.002;2023-03-20T01:30:20;8.70;96.90
212;DHT22;16228;48.800;9.002;2023-03-20T01:32:47;8.70;96.90
212;DHT22;16228;48.800;9.002;2023-03-20T01:35:16;8.70;96.90
212;DHT22;16228;48.800;9.002;2023-03-20T01:37:44;8.70;96.90
212;DHT22;16228;48.800;9.002;2023-03-20T01:40:24;8.70;96.90
212;DHT22;16228;48.800;9.002;2023-03-20T01:42:52;8.80;96.90
212;DHT22;16228;48.800;9.002;2023-03-20T01:45:23;8.70;96.90
212;DHT22;16228;48.800;9.002;2023-03-20T01:47:51;8.70;96.90
212;DHT22;16228;48.800;9.002;2023-03-20T01:50:25;8.70;96.90
212;DHT22;16228;48.800;9.002;2023-03-20T01:52:58;8.80;96.90
212;DHT22;16228;48.800;9.002;2023-03-20T01:55:27;8.80;96.90
212;DHT22;16228;48.800;9.002;2023-03-20T01:57:55;8.80;96.90
212;DHT22;16228;48.800;9.002;2023-03-20T02:00:23;8.80;96.90
212;DHT22;16228;48.800;9.002;2023-03-20T02:02:50;8.80;96.90
212;DHT22;16228;48.800;9.002;2023-03-20T02:05:20;8.80;96.90
212;DHT22;16228;48.800;9.002;2023-03-20T02:07:55;8.80;96.90
212;DHT22;16228;48.800;9.002;2023-03-20T02:10:25;8.80;96.90
212;DHT22;16228;48.800;9.002;2023-03-20T02:12:52;8.80;96.90
212;DHT22;16228;48.800;9.002;2023-03-20T02:15:19;8.90;96.90
212;DHT22;16228;48.800;9.002;2023-03-20T02:17:46;8.90;96.90
212;DHT22;16228;48.800;9.002;2023-03-20T02:20:26;8.80;96.90
212;DHT22;16228;48.800;9.002;2023-03-20T02:26:18;8.90;96.90
212;DHT22;16228;48.800;9.002;2023-03-20T02:29:16;8.90;96.90
212;DHT22;16228;48.800;9.002;2023-03-20T02:34:55;8.80;96.90
212;DHT22;16228;48.800;9.002;2023-03-20T02:37:48;8.80;96.90
212;DHT22;16228;48.800;9.002;2023-03-20T02:40:24;8.80;96.90
212;DHT22;16228;48.800;9.002;2023-03-20T02:43:00;8.80;96.90
212;DHT22;16228;48.800;9.002;2023-03-20T02:45:33;8.80;96.90
212;DHT22;16228;48.800;9.002;2023-03-20T02:48:10;8.80;96.90
212;DHT22;16228;48.800;9.002;2023-03-20T02:50:44;8.70;96.90
212;DHT22;16228;48.800;9.002;2023-03-20T02:53:23;8.70;96.90
212;DHT22;16228;48.800;9.002;2023-03-20T02:55:56;8.80;96.90
212;DHT22;16228;48.800;9.002;2023-03-20T02:58:32;8.80;96.90
212;DHT22;16228;48.800;9.002;2023-03-20T03:01:08;8.80;96.90
212;DHT22;16228;48.800;9.002;2023-03-20T03:03:38;8.80;96.90
212;DHT22;16228;48.800;9.002;2023-03-20T03:06:12;8.70;96.90
212;DHT22;16228;48.800;9.002;2023-03-20T03:08:47;8.80;96.90
212;DHT22;16228;48.800;9.002;2023-03-20T03:11:15;8.80;96.90
212;DHT22;16228;48.800;9.002;2023-03-20T03:13:45;8.80;96.90
212;DHT22;16228;48.800;9.002;2023-03-20T03:16:17;8.80;96.90
212;DHT22;16228;48.800;9.002;2023-03-20T03:18:49;8.80;96.90
212;DHT22;16228;48.800;9.002;2023-03-20T03:21:17;8.80;96.90
212;DHT22;16228;48.800;9.002;2023-03-20T03:23:48;8.70;96.90
212;DHT22;16228;48.800;9.002;2023-03-20T03:26:20;8.70;96.90
212;DHT22;16228;48.800;9.002;2023-03-20T03:28:50;8.70;96.90
212;DHT22;16228;48.800;9.002;2023-03-20T03:31:20;8.70;96.90
212;DHT22;16228;48.800;9.002;2023-03-20T03:33:53;8.70;96.90
212;DHT22;16228;48.800;9.002;2023-03-20T03:36:31;8.60;96.90
212;DHT22;16228;48.800;9.002;2023-03-20T03:39:08;8.60;96.90
212;DHT22;16228;48.800;9.002;2023-03-20T03:41:40;8.70;96.90
212;DHT22;16228;48.800;9.002;2023-03-20T03:44:12;8.70;96.90
212;DHT22;16228;48.800;9.002;2023-03-20T03:46:44;8.70;96.90
212;DHT22;16228;48.800;9.002;2023-03-20T03:49:15;8.70;96.90
212;DHT22;16228;48.800;9.002;2023-03-20T03:51:45;8.60;96.90
212;DHT22;16228;48.800;9.002;2023-03-20T03:54:18;8.70;96.90
212;DHT22;16228;48.800;9.002;2023-03-20T03:56:48;8.60;96.90
212;DHT22;16228;48.800;9.002;2023-03-20T03:59:20;8.60;96.90
212;DHT22;16228;48.800;9.002;2023-03-20T04:01:49;8.60;96.90
212;DHT22;16228;48.800;9.002;2023-03-20T04:04:17;8.60;96.90
212;DHT22;16228;48.800;9.002;2023-03-20T04:06:45;8.60;96.90
212;DHT22;16228;48.800;9.002;2023-03-20T04:09:12;8.60;96.90
212;DHT22;16228;48.800;9.002;2023-03-20T04:11:40;8.60;96.90
212;DHT22;16228;48.800;9.002;2023-03-20T04:14:07;8.60;96.90
212;DHT22;16228;48.800;9.002;2023-03-20T04:16:34;8.60;96.90
212;DHT22;16228;48.800;9.002;2023-03-20T04:19:01;8.60;96.90
212;DHT22;16228;48.800;9.002;2023-03-20T04:21:28;8.60;96.90
212;DHT22;16228;48.800;9.002;2023-03-20T04:23:56;8.50;96.90
212;DHT22;16228;48.800;9.002;2023-03-20T04:26:23;8.50;96.90
212;DHT22;16228;48.800;9.002;2023-03-20T04:28:51;8.50;96.90
212;DHT22;16228;48.800;9.002;2023-03-20T04:31:18;8.50;96.90
212;DHT22;16228;48.800;9.002;2023-03-20T04:33:45;8.50;96.90
212;DHT22;16228;48.800;9.002;2023-03-20T04:36:13;8.40;96.90
212;DHT22;16228;48.800;9.002;2023-03-20T04:38:40;8.50;96.90
212;DHT22;16228;48.800;9.002;2023-03-20T04:41:07;8.40;96.90
212;DHT22;16228;48.800;9.002;2023-03-20T04:43:34;8.30;96.90
212;DHT22;16228;48.800;9.002;2023-03-20T04:46:02;8.30;96.90
212;DHT22;16228;48.800;9.002;2023-03-20T04:48:29;8.30;96.90
212;DHT22;16228;48.800;9.002;2023-03-20T04:50:56;8.20;96.90
212;DHT22;16228;48.800;9.002;2023-03-20T04:53:23;8.20;96.90
212;DHT22;16228;48.800;9.002;2023-03-20T04:55:50;8.30;96.90
212;DHT22;16228;48.800;9.002;2023-03-20T04:58:17;8.30;96.90
212;DHT22;16228;48.800;9.002;2023-03-20T05:00:44;8.30;96.90
212;DHT22;16228;48.800;9.002;2023-03-20T05:03:12;8.30;96.90
212;DHT22;16228;48.800;9.002;2023-03-20T05:05:39;8.30;96.90
212;DHT22;16228;48.800;9.002;2023-03-20T05:08:06;8.30;96.90
212;DHT22;16228;48.800;9.002;2023-03-20T05:10:33;8.30;96.90
212;DHT22;16228;48.800;9.002;2023-03-20T05:13:00;8.30;96.90
212;DHT22;16228;48.800;9.002;2023-03-20T05:15:27;8.30;96.90
212;DHT22;16228;48.800;9.002;2023-03-20T05:17:54;8.30;96.90
212;DHT22;16228;48.800;9.002;2023-03-20T05:20:22;8.30;96.90
212;DHT22;16228;48.800;9.002;2023-03-20T05:22:49;8.30;96.90
212;DHT22;16228;48.800;9.002;2023-03-20T05:25:17;8.40;96.90
212;DHT22;16228;48.800;9.002;2023-03-20T05:27:44;8.30;96.90
212;DHT22;16228;48.800;9.002;2023-03-20T05:30:13;8.40;96.90
212;DHT22;16228;48.800;9.002;2023-03-20T05:32:40;8.30;96.90
212;DHT22;16228;48.800;9.002;2023-03-20T05:35:09;8.30;96.90
212;DHT22;16228;48.800;9.002;2023-03-20T05:37:38;8.40;96.90
212;DHT22;16228;48.800;9.002;2023-03-20T05:40:06;8.30;96.90
212;DHT22;16228;48.800;9.002;2023-03-20T05:42:33;8.30;96.90
212;DHT22;16228;48.800;9.002;2023-03-20T05:45:00;8.30;96.90
212;DHT22;16228;48.800;9.002;2023-03-20T05:47:27;8.40;96.90
212;DHT22;16228;48.800;9.002;2023-03-20T05:49:54;8.40;96.90
212;DHT22;16228;48.800;9.002;2023-03-20T05:52:21;8.40;96.90
212;DHT22;16228;48.800;9.002;2023-03-20T05:54:50;8.40;96.90
212;DHT22;16228;48.800;9.002;2023-03-20T05:57:17;8.50;96.90
212;DHT22;16228;48.800;9.002;2023-03-20T05:59:44;8.60;96.90
212;DHT22;16228;48.800;9.002;2023-03-20T06:02:11;8.60;96.90
212;DHT22;16228;48.800;9.002;2023-03-20T06:04:38;8.60;96.90
212;DHT22;16228;48.800;9.002;2023-03-20T06:07:05;8.60;96.90
212;DHT22;16228;48.800;9.002;2023-03-20T06:09:32;8.70;96.90
212;DHT22;16228;48.800;9.002;2023-03-20T06:12:01;8.70;96.90
212;DHT22;16228;48.800;9.002;2023-03-20T06:14:28;8.80;96.90
212;DHT22;16228;48.800;9.002;2023-03-20T06:16:55;8.90;96.90
212;DHT22;16228;48.800;9.002;2023-03-20T06:19:22;8.90;96.90
212;DHT22;16228;48.800;9.002;2023-03-20T06:21:49;9.00;96.90
212;DHT22;16228;48.800;9.002;2023-03-20T06:24:17;9.00;96.90
212;DHT22;16228;48.800;9.002;2023-03-20T06:26:44;9.10;96.90
212;DHT22;16228;48.800;9.002;2023-03-20T06:29:12;9.10;96.90
212;DHT22;16228;48.800;9.002;2023-03-20T06:31:39;9.20;96.90
212;DHT22;16228;48.800;9.002;2023-03-20T06:34:06;9.30;96.90
212;DHT22;16228;48.800;9.002;2023-03-20T06:36:33;9.40;96.90
212;DHT22;16228;48.800;9.002;2023-03-20T06:39:01;9.60;96.90
212;DHT22;16228;48.800;9.002;2023-03-20T06:41:28;9.60;96.90
212;DHT22;16228;48.800;9.002;2023-03-20T06:43:54;9.70;96.90
212;DHT22;16228;48.800;9.002;2023-03-20T06:46:23;9.90;96.90
212;DHT22;16228;48.800;9.002;2023-03-20T06:48:50;10.10;96.90
212;DHT22;16228;48.800;9.002;2023-03-20T06:51:17;10.40;96.90
212;DHT22;16228;48.800;9.002;2023-03-20T06:53:44;10.60;96.90
212;DHT22;16228;48.800;9.002;2023-03-20T06:56:11;10.80;96.90
212;DHT22;16228;48.800;9.002;2023-03-20T06:58:38;10.90;96.90
212;DHT22;16228;48.800;9.002;2023-03-20T07:01:12;11.10;96.90
212;DHT22;16228;48.800;9.002;2023-03-20T07:03:41;11.40;96.90
212;DHT22;16228;48.800;9.002;2023-03-20T07:06:08;11.60;96.90
212;DHT22;16228;48.800;9.002;2023-03-20T07:08:37;11.80;96.90
212;DHT22;16228;48.800;9.002;2023-03-20T07:11:04;12.00;96.90
212;DHT22;16228;48.800;9.002;2023-03-20T07:13:31;11.90;96.90
212;DHT22;16228;48.800;9.002;2023-03-20T07:15:59;12.00;96.90
212;DHT22;16228;48.800;9.002;2023-03-20T07:18:27;12.00;96.90
212;DHT22;16228;48.800;9.002;2023-03-20T07:20:58;12.10;96.90
212;DHT22;16228;48.800;9.002;2023-03-20T07:23:26;12.00;96.90
212;DHT22;16228;48.800;9.002;2023-03-20T07:25:53;11.90;96.90
212;DHT22;16228;48.800;9.002;2023-03-20T07:28:20;11.80;96.90
212;DHT22;16228;48.800;9.002;2023-03-20T07:30:47;11.60;96.90
212;DHT22;16228;48.800;9.002;2023-03-20T07:33:14;11.60;96.90
212;DHT22;16228;48.800;9.002;2023-03-20T07:35:41;11.80;96.90
212;DHT22;16228;48.800;9.002;2023-03-20T07:38:09;11.90;96.90
212;DHT22;16228;48.800;9.002;2023-03-20T07:40:36;12.10;96.90
212;DHT22;16228;48.800;9.002;2023-03-20T07:43:03;12.30;96.90
212;DHT22;16228;48.800;9.002;2023-03-20T07:45:30;12.50;96.90
212;DHT22;16228;48.800;9.002;2023-03-20T07:47:57;12.70;96.90
212;DHT22;16228;48.800;9.002;2023-03-20T07:50:24;12.90;96.90
212;DHT22;16228;48.800;9.002;2023-03-20T07:52:51;13.10;96.90
212;DHT22;16228;48.800;9.002;2023-03-20T07:55:19;13.30;96.90
212;DHT22;16228;48.800;9.002;2023-03-20T07:57:47;13.30;96.90
212;DHT22;16228;48.800;9.002;2023-03-20T08:00:16;13.40;96.90
212;DHT22;16228;48.800;9.002;2023-03-20T08:02:43;13.40;96.90
212;DHT22;16228;48.800;9.002;2023-03-20T08:05:10;13.50;96.90
212;DHT22;16228;48.800;9.002;2023-03-20T08:07:37;13.70;96.90
212;DHT22;16228;48.800;9.002;2023-03-20T08:10:05;13.90;96.90
212;DHT22;16228;48.800;9.002;2023-03-20T08:12:33;14.20;96.90
212;DHT22;16228;48.800;9.002;2023-03-20T08:15:00;14.20;96.90
212;DHT22;16228;48.800;9.002;2023-03-20T08:17:28;14.10;96.90
212;DHT22;16228;48.800;9.002;2023-03-20T08:19:55;13.80;96.90
212;DHT22;16228;48.800;9.002;2023-03-20T08:22:21;13.50;96.90
212;DHT22;16228;48.800;9.002;2023-03-20T08:24:48;13.30;96.90
212;DHT22;16228;48.800;9.002;2023-03-20T08:27:15;13.20;96.90
212;DHT22;16228;48.800;9.002;2023-03-20T08:29:44;13.10;96.90
212;DHT22;16228;48.800;9.002;2023-03-20T08:32:11;13.30;96.90
212;DHT22;16228;48.800;9.002;2023-03-20T08:34:38;13.40;96.90
212;DHT22;16228;48.800;9.002;2023-03-20T08:37:05;13.40;96.90
212;DHT22;16228;48.800;9.002;2023-03-20T08:39:32;13.40;96.90
212;DHT22;16228;48.800;9.002;2023-03-20T08:42:00;13.30;96.90
212;DHT22;16228;48.800;9.002;2023-03-20T08:44:27;13.60;96.90
212;DHT22;16228;48.800;9.002;2023-03-20T08:46:56;13.90;96.90
212;DHT22;16228;48.800;9.002;2023-03-20T08:49:23;14.10;96.90
212;DHT22;16228;48.800;9.002;2023-03-20T08:51:50;14.40;96.90
212;DHT22;16228;48.800;9.002;2023-03-20T08:54:17;14.80;96.90
212;DHT22;16228;48.800;9.002;2023-03-20T08:56:44;15.00;96.90
212;DHT22;16228;48.800;9.002;2023-03-20T08:59:11;15.10;96.90
212;DHT22;16228;48.800;9.002;2023-03-20T09:01:38;15.40;96.90
212;DHT22;16228;48.800;9.002;2023-03-20T09:04:07;15.70;96.90
212;DHT22;16228;48.800;9.002;2023-03-20T09:06:35;15.90;96.90
212;DHT22;16228;48.800;9.002;2023-03-20T09:09:03;15.90;96.90
212;DHT22;16228;48.800;9.002;2023-03-20T09:11:30;15.80;96.90
212;DHT22;16228;48.800;9.002;2023-03-20T09:13:58;15.60;96.90
212;DHT22;16228;48.800;9.002;2023-03-20T09:16:25;15.40;96.90
212;DHT22;16228;48.800;9.002;2023-03-20T09:18:52;15.50;96.90
212;DHT22;16228;48.800;9.002;2023-03-20T09:21:21;15.80;96.90
212;DHT22;16228;48.800;9.002;2023-03-20T09:23:48;16.10;96.90
212;DHT22;16228;48.800;9.002;2023-03-20T09:26:15;16.30;96.90
212;DHT22;16228;48.800;9.002;2023-03-20T09:28:42;16.40;96.90
212;DHT22;16228;48.800;9.002;2023-03-20T09:31:08;16.40;96.90
212;DHT22;16228;48.800;9.002;2023-03-20T09:33:36;16.60;96.50
212;DHT22;16228;48.800;9.002;2023-03-20T09:36:04;16.80;96.90
212;DHT22;16228;48.800;9.002;2023-03-20T09:38:33;16.90;96.60
212;DHT22;16228;48.800;9.002;2023-03-20T09:41:02;16.90;96.80
212;DHT22;16228;48.800;9.002;2023-03-20T09:43:36;16.60;94.50
212;DHT22;16228;48.800;9.002;2023-03-20T09:46:13;16.40;95.50
212;DHT22;16228;48.800;9.002;2023-03-20T09:48:48;16.20;96.30
212;DHT22;16228;48.800;9.002;2023-03-20T09:51:22;16.00;96.90
212;DHT22;16228;48.800;9.002;2023-03-20T09:53:56;15.90;96.90
212;DHT22;16228;48.800;9.002;2023-03-20T09:56:27;15.40;96.90
212;DHT22;16228;48.800;9.002;2023-03-20T09:58:56;15.20;96.90
212;DHT22;16228;48.800;9.002;2023-03-20T10:01:26;15.00;96.90
212;DHT22;16228;48.800;9.002;2023-03-20T10:03:57;14.80;96.90
212;DHT22;16228;48.800;9.002;2023-03-20T10:06:25;14.70;96.90
212;DHT22;16228;48.800;9.002;2023-03-20T10:08:53;14.80;96.90
212;DHT22;16228;48.800;9.002;2023-03-20T10:11:45;14.90;96.90
212;DHT22;16228;48.800;9.002;2023-03-20T10:14:22;14.90;96.90
212;DHT22;16228;48.800;9.002;2023-03-20T10:17:13;14.80;96.90
212;DHT22;16228;48.800;9.002;2023-03-20T10:19:49;14.70;96.90
212;DHT22;16228;48.800;9.002;2023-03-20T10:22:22;14.30;96.90
212;DHT22;16228;48.800;9.002;2023-03-20T10:24:56;14.30;96.90
212;DHT22;16228;48.800;9.002;2023-03-20T10:27:28;14.20;96.90
212;DHT22;16228;48.800;9.002;2023-03-20T10:30:05;14.10;96.90
212;DHT22;16228;48.800;9.002;2023-03-20T10:32:42;14.10;96.90
212;DHT22;16228;48.800;9.002;2023-03-20T10:35:17;14.20;96.90
212;DHT22;16228;48.800;9.002;2023-03-20T10:38:03;14.40;96.90
212;DHT22;16228;48.800;9.002;2023-03-20T10:40:34;14.50;96.90
212;DHT22;16228;48.800;9.002;2023-03-20T10:43:09;14.50;96.90
212;DHT22;16228;48.800;9.002;2023-03-20T10:45:40;14.60;96.90
212;DHT22;16228;48.800;9.002;2023-03-20T10:48:16;14.70;96.90
212;DHT22;16228;48.800;9.002;2023-03-20T10:50:48;15.00;96.90
212;DHT22;16228;48.800;9.002;2023-03-20T10:53:24;15.40;96.90
212;DHT22;16228;48.800;9.002;2023-03-20T10:55:56;15.70;96.90
212;DHT22;16228;48.800;9.002;2023-03-20T10:58:27;16.70;96.90
212;DHT22;16228;48.800;9.002;2023-03-20T11:00:55;18.10;94.90
212;DHT22;16228;48.800;9.002;2023-03-20T11:03:24;18.60;91.40
212;DHT22;16228;48.800;9.002;2023-03-20T11:05:54;18.40;92.10
212;DHT22;16228;48.800;9.002;2023-03-20T11:08:25;17.90;92.50
212;DHT22;16228;48.800;9.002;2023-03-20T11:10:59;17.30;92.50
212;DHT22;16228;48.800;9.002;2023-03-20T11:13:30;17.00;94.80
212;DHT22;16228;48.800;9.002;2023-03-20T11:16:09;16.80;94.50
212;DHT22;16228;48.800;9.002;2023-03-20T11:18:37;16.40;95.90
212;DHT22;16228;48.800;9.002;2023-03-20T11:21:09;16.10;96.80
212;DHT22;16228;48.800;9.002;2023-03-20T11:23:39;16.00;96.90
212;DHT22;16228;48.800;9.002;2023-03-20T11:26:13;15.60;96.40
212;DHT22;16228;48.800;9.002;2023-03-20T11:28:46;15.50;96.90
212;DHT22;16228;48.800;9.002;2023-03-20T11:31:18;15.60;96.90
212;DHT22;16228;48.800;9.002;2023-03-20T11:33:50;16.10;96.90
212;DHT22;16228;48.800;9.002;2023-03-20T11:36:22;16.80;96.10
212;DHT22;16228;48.800;9.002;2023-03-20T11:38:51;16.90;94.20
212;DHT22;16228;48.800;9.002;2023-03-20T11:41:24;16.70;94.90
212;DHT22;16228;48.800;9.002;2023-03-20T11:43:51;16.90;95.30
212;DHT22;16228;48.800;9.002;2023-03-20T11:46:20;18.40;93.10
212;DHT22;16228;48.800;9.002;2023-03-20T11:49:04;19.80;86.00
212;DHT22;16228;48.800;9.002;2023-03-20T11:51:33;20.20;85.00
212;DHT22;16228;48.800;9.002;2023-03-20T11:54:03;20.10;85.20
212;DHT22;16228;48.800;9.002;2023-03-20T11:56:33;19.70;85.00
212;DHT22;16228;48.800;9.002;2023-03-20T11:59:03;19.10;85.80
212;DHT22;16228;48.800;9.002;2023-03-20T12:01:38;18.70;88.90
212;DHT22;16228;48.800;9.002;2023-03-20T12:04:12;18.80;88.80
212;DHT22;16228;48.800;9.002;2023-03-20T12:06:44;19.80;87.70
212;DHT22;16228;48.800;9.002;2023-03-20T12:09:36;20.20;83.90
212;DHT22;16228;48.800;9.002;2023-03-20T12:12:14;19.20;83.90
212;DHT22;16228;48.800;9.002;2023-03-20T12:14:52;18.50;86.20
212;DHT22;16228;48.800;9.002;2023-03-20T12:17:43;18.00;88.10
212;DHT22;16228;48.800;9.002;2023-03-20T12:20:21;17.30;89.90
212;DHT22;16228;48.800;9.002;2023-03-20T12:22:56;16.90;91.50
212;DHT22;16228;48.800;9.002;2023-03-20T12:25:26;16.50;92.10
212;DHT22;16228;48.800;9.002;2023-03-20T12:28:02;16.20;93.40
212;DHT22;16228;48.800;9.002;2023-03-20T12:30:40;16.10;93.80
212;DHT22;16228;48.800;9.002;2023-03-20T12:33:13;16.10;95.30
212;DHT22;16228;48.800;9.002;2023-03-20T12:35:45;16.10;95.10
212;DHT22;16228;48.800;9.002;2023-03-20T12:38:22;16.10;93.70
212;DHT22;16228;48.800;9.002;2023-03-20T12:40:52;16.10;92.70
212;DHT22;16228;48.800;9.002;2023-03-20T12:43:24;16.10;93.40
212;DHT22;16228;48.800;9.002;2023-03-20T12:45:58;15.90;94.20
212;DHT22;16228;48.800;9.002;2023-03-20T12:48:47;15.60;94.80
212;DHT22;16228;48.800;9.002;2023-03-20T12:51:22;15.30;95.90
212;DHT22;16228;48.800;9.002;2023-03-20T12:54:01;15.10;96.20
212;DHT22;16228;48.800;9.002;2023-03-20T12:56:46;15.00;96.90
212;DHT22;16228;48.800;9.002;2023-03-20T12:59:21;14.80;96.90
212;DHT22;16228;48.800;9.002;2023-03-20T13:01:54;14.60;96.90
212;DHT22;16228;48.800;9.002;2023-03-20T13:04:42;14.50;96.90
212;DHT22;16228;48.800;9.002;2023-03-20T13:07:17;14.50;96.90
212;DHT22;16228;48.800;9.002;2023-03-20T13:10:02;14.50;96.90
212;DHT22;16228;48.800;9.002;2023-03-20T13:12:43;14.60;96.90
212;DHT22;16228;48.800;9.002;2023-03-20T13:15:23;14.70;96.90
212;DHT22;16228;48.800;9.002;2023-03-20T13:18:00;14.60;96.90
212;DHT22;16228;48.800;9.002;2023-03-20T13:20:32;14.70;96.90
212;DHT22;16228;48.800;9.002;2023-03-20T13:23:09;15.00;96.90
212;DHT22;16228;48.800;9.002;2023-03-20T13:28:37;15.60;95.30
212;DHT22;16228;48.800;9.002;2023-03-20T13:31:15;15.80;93.90
212;DHT22;16228;48.800;9.002;2023-03-20T13:33:47;16.10;93.90
212;DHT22;16228;48.800;9.002;2023-03-20T13:36:24;16.30;94.00
212;DHT22;16228;48.800;9.002;2023-03-20T13:38:58;16.30;92.40
212;DHT22;16228;48.800;9.002;2023-03-20T13:41:26;16.20;92.40
212;DHT22;16228;48.800;9.002;2023-03-20T13:43:56;16.10;94.00
212;DHT22;16228;48.800;9.002;2023-03-20T13:46:32;16.10;92.50
212;DHT22;16228;48.800;9.002;2023-03-20T13:49:06;16.30;93.20
212;DHT22;16228;48.800;9.002;2023-03-20T13:51:42;16.70;92.60
212;DHT22;16228;48.800;9.002;2023-03-20T13:54:18;17.20;90.60
212;DHT22;16228;48.800;9.002;2023-03-20T13:56:53;18.00;89.30
212;DHT22;16228;48.800;9.002;2023-03-20T13:59:36;18.50;87.80
212;DHT22;16228;48.800;9.002;2023-03-20T14:02:16;18.80;85.30
212;DHT22;16228;48.800;9.002;2023-03-20T14:04:46;19.00;83.60
212;DHT22;16228;48.800;9.002;2023-03-20T14:07:27;18.90;83.00
212;DHT22;16228;48.800;9.002;2023-03-20T14:09:54;18.70;83.00
212;DHT22;16228;48.800;9.002;2023-03-20T14:12:24;18.40;84.20
212;DHT22;16228;48.800;9.002;2023-03-20T14:14:53;18.30;83.90
212;DHT22;16228;48.800;9.002;2023-03-20T14:17:24;18.40;85.80
212;DHT22;16228;48.800;9.002;2023-03-20T14:19:52;18.50;83.40
212;DHT22;16228;48.800;9.002;2023-03-20T14:22:22;17.90;85.30
212;DHT22;16228;48.800;9.002;2023-03-20T14:24:56;17.70;85.00
212;DHT22;16228;48.800;9.002;2023-03-20T14:27:26;17.60;86.10
212;DHT22;16228;48.800;9.002;2023-03-20T14:29:54;17.40;86.40
212;DHT22;16228;48.800;9.002;2023-03-20T14:32:45;16.90;86.90
212;DHT22;16228;48.800;9.002;2023-03-20T14:35:26;16.70;87.60
212;DHT22;16228;48.800;9.002;2023-03-20T14:38:08;16.50;87.90
212;DHT22;16228;48.800;9.002;2023-03-20T14:40:41;16.40;88.50
212;DHT22;16228;48.800;9.002;2023-03-20T14:43:17;16.40;89.70
212;DHT22;16228;48.800;9.002;2023-03-20T14:45:51;16.20;89.40
212;DHT22;16228;48.800;9.002;2023-03-20T14:48:30;16.10;87.30
212;DHT22;16228;48.800;9.002;2023-03-20T14:51:12;16.10;87.70
212;DHT22;16228;48.800;9.002;2023-03-20T14:53:42;16.20;88.00
212;DHT22;16228;48.800;9.002;2023-03-20T14:56:11;16.10;86.90
212;DHT22;16228;48.800;9.002;2023-03-20T14:58:52;16.00;88.80
212;DHT22;16228;48.800;9.002;2023-03-20T15:01:25;16.00;88.00
212;DHT22;16228;48.800;9.002;2023-03-20T15:03:56;16.00;89.40
212;DHT22;16228;48.800;9.002;2023-03-20T15:06:27;16.00;89.20
212;DHT22;16228;48.800;9.002;2023-03-20T15:08:56;15.90;88.20
212;DHT22;16228;48.800;9.002;2023-03-20T15:11:25;15.70;89.60
212;DHT22;16228;48.800;9.002;2023-03-20T15:13:53;15.40;90.20
212;DHT22;16228;48.800;9.002;2023-03-20T15:16:28;15.30;91.60
212;DHT22;16228;48.800;9.002;2023-03-20T15:18:57;15.20;92.10
212;DHT22;16228;48.800;9.002;2023-03-20T15:21:28;15.10;91.60
212;DHT22;16228;48.800;9.002;2023-03-20T15:23:57;15.10;91.80
212;DHT22;16228;48.800;9.002;2023-03-20T15:26:25;15.00;91.70
212;DHT22;16228;48.800;9.002;2023-03-20T15:28:58;15.00;92.70
212;DHT22;16228;48.800;9.002;2023-03-20T15:31:27;15.00;91.90
212;DHT22;16228;48.800;9.002;2023-03-20T15:33:57;14.90;92.40
212;DHT22;16228;48.800;9.002;2023-03-20T15:36:26;14.80;93.80
212;DHT22;16228;48.800;9.002;2023-03-20T15:39:11;14.60;93.60
212;DHT22;16228;48.800;9.002;2023-03-20T15:41:39;14.50;94.60
212;DHT22;16228;48.800;9.002;2023-03-20T15:44:17;14.40;95.50
212;DHT22;16228;48.800;9.002;2023-03-20T15:46:57;14.50;95.80
212;DHT22;16228;48.800;9.002;2023-03-20T15:49:27;14.50;95.60
212;DHT22;16228;48.800;9.002;2023-03-20T15:51:57;14.50;96.00
212;DHT22;16228;48.800;9.002;2023-03-20T15:54:25;14.40;95.60
212;DHT22;16228;48.800;9.002;2023-03-20T15:56:56;14.30;96.10
212;DHT22;16228;48.800;9.002;2023-03-20T15:59:27;14.20;96.10
212;DHT22;16228;48.800;9.002;2023-03-20T16:01:56;14.20;96.20
212;DHT22;16228;48.800;9.002;2023-03-20T16:04:26;14.20;96.90
212;DHT22;16228;48.800;9.002;2023-03-20T16:06:55;14.30;96.00
212;DHT22;16228;48.800;9.002;2023-03-20T16:09:23;14.40;95.80
212;DHT22;16228;48.800;9.002;2023-03-20T16:11:56;14.30;96.10
212;DHT22;16228;48.800;9.002;2023-03-20T16:14:25;14.30;96.10
212;DHT22;16228;48.800;9.002;2023-03-20T16:16:54;14.20;95.40
212;DHT22;16228;48.800;9.002;2023-03-20T16:19:25;14.20;95.60
212;DHT22;16228;48.800;9.002;2023-03-20T16:21:55;14.20;95.10
212;DHT22;16228;48.800;9.002;2023-03-20T16:24:27;14.20;94.60
212;DHT22;16228;48.800;9.002;2023-03-20T16:26:54;14.20;95.60
212;DHT22;16228;48.800;9.002;2023-03-20T16:29:25;14.10;95.30
212;DHT22;16228;48.800;9.002;2023-03-20T16:31:56;14.10;95.80
212;DHT22;16228;48.800;9.002;2023-03-20T16:34:30;14.00;95.60
212;DHT22;16228;48.800;9.002;2023-03-20T16:37:00;14.00;96.90
212;DHT22;16228;48.800;9.002;2023-03-20T16:39:29;14.00;96.40